createdAt,value
2023-04-21T00:01:26.141Z,20.23
2023-04-21T00:03:52.967Z,19.97
2023-04-21T00:06:22.779Z,18.27
2023-04-21T00:08:50.247Z,20.60
2023-04-21T00:11:16.999Z,20.23
2023-04-21T00:13:43.771Z,21.93
2023-04-21T00:16:10.864Z,20.33
2023-04-21T00:18:37.589Z,20.40
2023-04-21T00:21:04.446Z,19.53
2023-04-21T00:23:31.025Z,19.97
2023-04-21T00:25:57.736Z,19.40
2023-04-21T00:28:24.432Z,19.57
2023-04-21T00:30:51.228Z,21.13
2023-04-21T00:33:17.808Z,21.57
2023-04-21T00:35:44.442Z,20.00
2023-04-21T00:38:11.017Z,19.03
2023-04-21T00:40:37.656Z,18.00
2023-04-21T00:43:07.583Z,19.03
2023-04-21T00:45:34.238Z,19.23
2023-04-21T00:48:00.959Z,19.87
2023-04-21T00:50:28.783Z,20.77
2023-04-21T00:52:56.069Z,19.53
2023-04-21T00:55:22.967Z,18.63
2023-04-21T00:57:51.967Z,18.00
2023-04-21T01:00:18.811Z,19.30
2023-04-21T01:02:45.666Z,20.30
2023-04-21T01:05:12.688Z,19.97
2023-04-21T01:07:39.446Z,17.63
2023-04-21T01:10:06.875Z,18.60
2023-04-21T01:12:33.524Z,18.90
2023-04-21T01:15:00.736Z,17.88
2023-04-21T01:17:27.378Z,19.25
2023-04-21T01:19:58.019Z,18.48
2023-04-21T01:22:24.587Z,19.50
2023-04-21T01:24:51.656Z,20.98
2023-04-21T01:27:20.465Z,19.17
2023-04-21T01:29:49.517Z,19.20
2023-04-21T01:32:19.531Z,19.60
2023-04-21T01:34:46.623Z,18.55
2023-04-21T01:37:17.497Z,18.65
2023-04-21T01:39:46.675Z,18.50
2023-04-21T01:42:13.668Z,19.48
2023-04-21T01:44:40.934Z,15.73
2023-04-21T01:47:07.831Z,17.88
2023-04-21T01:49:34.479Z,16.10
2023-04-21T01:52:01.170Z,16.17
2023-04-21T01:54:27.853Z,16.55
2023-04-21T01:56:54.517Z,17.13
2023-04-21T01:59:21.797Z,16.55
2023-04-21T02:01:48.555Z,18.25
2023-04-21T02:04:15.641Z,20.30
2023-04-21T02:06:42.401Z,19.67
2023-04-21T02:09:11.543Z,18.70
2023-04-21T02:11:38.144Z,18.92
2023-04-21T02:14:04.746Z,19.83
2023-04-21T02:16:32.425Z,17.80
2023-04-21T02:18:59.870Z,16.48
2023-04-21T02:21:27.879Z,17.77
2023-04-21T02:23:54.714Z,18.92
2023-04-21T02:26:21.626Z,17.23
2023-04-21T02:28:49.551Z,19.40
2023-04-21T02:31:17.149Z,19.95
2023-04-21T02:33:43.742Z,19.70
2023-04-21T02:36:10.425Z,16.08
2023-04-21T02:38:37.090Z,16.90
2023-04-21T02:41:03.806Z,18.75
2023-04-21T02:43:30.402Z,18.05
2023-04-21T02:45:57.026Z,19.25
2023-04-21T02:48:23.643Z,18.05
2023-04-21T02:50:51.055Z,17.02
2023-04-21T02:53:17.691Z,19.20
2023-04-21T02:55:44.324Z,17.77
2023-04-21T02:58:11.061Z,16.58
2023-04-21T03:00:37.835Z,15.38
2023-04-21T03:03:04.926Z,15.65
2023-04-21T03:05:31.769Z,14.93
2023-04-21T03:07:58.356Z,18.15
2023-04-21T03:10:25.095Z,15.35
2023-04-21T03:12:51.749Z,15.60
2023-04-21T03:15:19.442Z,15.43
2023-04-21T03:17:46.087Z,14.73
2023-04-21T03:20:12.953Z,16.38
2023-04-21T03:22:39.573Z,15.48
2023-04-21T03:25:07.478Z,15.75
2023-04-21T03:27:34.966Z,17.08
2023-04-21T03:30:01.757Z,13.55
2023-04-21T03:32:28.565Z,14.85
2023-04-21T03:34:55.286Z,16.02
2023-04-21T03:37:24.063Z,14.00
2023-04-21T03:39:54.804Z,14.70
2023-04-21T03:42:21.460Z,16.00
2023-04-21T03:44:48.031Z,15.05
2023-04-21T03:47:16.618Z,17.15
2023-04-21T03:49:43.217Z,16.63
2023-04-21T03:52:09.994Z,17.00
2023-04-21T03:54:36.637Z,16.50
2023-04-21T03:57:03.264Z,15.80
2023-04-21T03:59:29.905Z,14.90
2023-04-21T04:01:56.556Z,15.45
2023-04-21T04:04:23.293Z,15.80
2023-04-21T04:06:50.091Z,15.52
2023-04-21T04:09:16.841Z,16.45
2023-04-21T04:11:43.563Z,15.43
2023-04-21T04:14:10.246Z,15.38
2023-04-21T04:16:37.339Z,16.50
2023-04-21T04:19:04.082Z,17.42
2023-04-21T04:21:32.409Z,14.75
2023-04-21T04:23:59.415Z,17.38
2023-04-21T04:26:26.437Z,13.50
2023-04-21T04:28:53.365Z,16.02
2023-04-21T04:31:19.994Z,18.35
2023-04-21T04:33:46.677Z,15.63
2023-04-21T04:36:13.652Z,14.23
2023-04-21T04:38:40.294Z,14.07
2023-04-21T04:41:08.997Z,17.00
2023-04-21T04:43:41.602Z,22.58
2023-04-21T04:46:09.480Z,18.90
2023-04-21T04:48:36.149Z,15.20
2023-04-21T04:51:02.813Z,16.98
2023-04-21T04:53:29.422Z,18.67
2023-04-21T04:55:59.388Z,12.25
2023-04-21T04:58:26.035Z,19.30
2023-04-21T05:00:52.643Z,17.60
2023-04-21T05:03:19.384Z,17.55
2023-04-21T05:05:46.319Z,15.38
2023-04-21T05:08:13.720Z,15.65
2023-04-21T05:10:41.311Z,18.52
2023-04-21T05:13:07.928Z,20.10
2023-04-21T05:15:34.535Z,17.38
2023-04-21T05:18:01.175Z,14.73
2023-04-21T05:20:27.804Z,18.02
2023-04-21T05:22:54.384Z,17.15
2023-04-21T05:25:21.101Z,13.68
2023-04-21T05:27:48.270Z,15.32
2023-04-21T05:30:14.919Z,16.13
2023-04-21T05:32:41.538Z,15.20
2023-04-21T05:35:08.404Z,14.90
2023-04-21T05:37:35.417Z,16.38
2023-04-21T05:40:02.106Z,18.55
2023-04-21T05:42:28.678Z,18.27
2023-04-21T05:44:55.340Z,15.10
2023-04-21T05:47:22.040Z,14.48
2023-04-21T05:49:53.469Z,15.60
2023-04-21T05:52:21.760Z,13.07
2023-04-21T05:54:48.550Z,15.40
2023-04-21T05:57:17.774Z,14.70
2023-04-21T05:59:44.496Z,16.02
2023-04-21T06:02:11.961Z,17.27
2023-04-21T06:04:38.919Z,16.55
2023-04-21T06:07:10.381Z,14.38
2023-04-21T06:09:36.986Z,13.65
2023-04-21T06:12:03.823Z,13.52
2023-04-21T06:14:32.770Z,14.30
2023-04-21T06:16:59.485Z,15.02
2023-04-21T06:19:26.133Z,16.50
2023-04-21T06:21:52.835Z,16.25
2023-04-21T06:24:24.992Z,19.35
2023-04-21T06:26:53.164Z,13.23
2023-04-21T06:29:20.779Z,13.52
2023-04-21T06:31:47.588Z,11.45
2023-04-21T06:34:14.558Z,13.13
2023-04-21T06:36:41.217Z,13.65
2023-04-21T06:39:07.851Z,19.65
2023-04-21T06:41:34.427Z,13.70
2023-04-21T06:44:01.178Z,13.27
2023-04-21T06:46:29.066Z,13.53
2023-04-21T06:48:55.926Z,12.93
2023-04-21T06:51:22.643Z,12.53
2023-04-21T06:53:49.962Z,11.43
2023-04-21T06:56:16.617Z,11.97
2023-04-21T06:58:43.218Z,10.60
2023-04-21T07:01:10.033Z,12.13
2023-04-21T07:03:36.786Z,9.83
2023-04-21T07:06:03.832Z,11.20
2023-04-21T07:08:30.553Z,10.40
2023-04-21T07:10:57.160Z,10.87
2023-04-21T07:13:24.916Z,10.73
2023-04-21T07:15:51.923Z,10.30
2023-04-21T07:18:18.738Z,10.67
2023-04-21T07:20:45.394Z,10.43
2023-04-21T07:23:12.045Z,9.77
2023-04-21T07:25:38.693Z,10.90
2023-04-21T07:28:05.764Z,11.20
2023-04-21T07:30:32.470Z,9.30
2023-04-21T07:32:59.236Z,12.00
2023-04-21T07:35:26.160Z,11.87
2023-04-21T07:37:52.768Z,10.07
2023-04-21T07:40:19.764Z,9.90
2023-04-21T07:42:46.531Z,12.80
2023-04-21T07:45:13.279Z,10.50
2023-04-21T07:47:40.031Z,11.77
2023-04-21T07:50:07.505Z,11.80
2023-04-21T07:52:34.282Z,13.20
2023-04-21T07:55:00.907Z,13.03
2023-04-21T07:57:27.561Z,13.20
2023-04-21T07:59:54.473Z,12.60
2023-04-21T08:02:21.295Z,14.80
2023-04-21T08:04:48.284Z,14.03
2023-04-21T08:07:17.996Z,13.90
2023-04-21T08:09:44.593Z,14.93
2023-04-21T08:12:11.202Z,17.27
2023-04-21T08:14:37.781Z,13.90
2023-04-21T08:17:04.396Z,14.00
2023-04-21T08:19:34.076Z,15.27
2023-04-21T08:22:00.702Z,15.90
2023-04-21T08:24:27.436Z,13.93
2023-04-21T08:26:54.035Z,14.17
2023-04-21T08:29:20.826Z,15.07
2023-04-21T08:31:47.524Z,14.03
2023-04-21T08:34:14.412Z,14.40
2023-04-21T08:36:42.645Z,14.97
2023-04-21T08:39:09.484Z,14.90
2023-04-21T08:41:40.098Z,14.53
2023-04-21T08:44:06.960Z,15.20
2023-04-21T08:46:34.436Z,16.17
2023-04-21T08:49:02.150Z,16.33
2023-04-21T08:51:30.072Z,17.87
2023-04-21T08:53:56.990Z,15.03
2023-04-21T08:56:25.957Z,17.90
2023-04-21T08:58:53.383Z,15.90
2023-04-21T09:01:20.153Z,15.70
2023-04-21T09:03:47.907Z,14.50
2023-04-21T09:06:15.172Z,17.37
2023-04-21T09:08:52.180Z,18.83
2023-04-21T09:11:19.866Z,15.83
2023-04-21T09:13:47.504Z,14.73
2023-04-21T09:16:23.726Z,16.80
2023-04-21T09:18:51.369Z,16.83
2023-04-21T09:21:19.818Z,16.27
2023-04-21T09:23:48.449Z,16.20
2023-04-21T09:26:16.293Z,17.23
2023-04-21T09:28:44.749Z,17.07
2023-04-21T09:31:16.837Z,15.27
2023-04-21T09:33:57.591Z,18.30
2023-04-21T09:36:29.647Z,17.10
2023-04-21T09:39:20.584Z,15.60
2023-04-21T09:41:44.876Z,14.27
2023-04-21T09:44:11.735Z,14.60
2023-04-21T09:46:40.474Z,13.13
2023-04-21T09:49:07.977Z,14.50
2023-04-21T09:54:32.372Z,14.90
2023-04-21T09:57:02.106Z,15.97
2023-04-21T09:59:40.612Z,16.00
2023-04-21T10:02:08.317Z,15.30
2023-04-21T10:04:41.442Z,17.50
2023-04-21T10:07:10.038Z,16.30
2023-04-21T10:09:58.157Z,13.40
2023-04-21T10:12:26.471Z,15.40
2023-04-21T10:14:53.739Z,14.20
2023-04-21T10:17:27.414Z,13.20
2023-04-21T10:19:59.254Z,14.30
2023-04-21T10:22:35.706Z,10.70
2023-04-21T10:25:04.205Z,11.10
2023-04-21T10:27:36.116Z,11.80
2023-04-21T10:30:22.806Z,10.53
2023-04-21T10:33:02.831Z,9.90
2023-04-21T10:35:58.876Z,10.30
2023-04-21T10:38:40.045Z,11.77
2023-04-21T10:41:27.064Z,10.17
2023-04-21T10:43:53.923Z,8.50
2023-04-21T10:46:37.830Z,7.70
2023-04-21T10:49:24.970Z,9.83
2023-04-21T10:51:58.036Z,9.43
2023-04-21T10:54:43.775Z,6.87
2023-04-21T10:57:16.293Z,6.53
2023-04-21T10:59:44.053Z,6.70
2023-04-21T11:02:15.933Z,6.50
2023-04-21T11:04:48.945Z,6.20
2023-04-21T11:07:19.305Z,5.70
2023-04-21T11:09:47.511Z,5.70
2023-04-21T11:12:16.211Z,5.37
2023-04-21T11:14:44.581Z,6.20
2023-04-21T11:17:13.481Z,7.20
2023-04-21T11:19:40.634Z,6.87
2023-04-21T11:22:07.804Z,7.50
2023-04-21T11:24:34.567Z,8.17
2023-04-21T11:27:02.089Z,9.03
2023-04-21T11:29:32.177Z,8.60
2023-04-21T11:31:59.166Z,8.77
2023-04-21T11:34:26.893Z,6.83
2023-04-21T11:36:54.064Z,8.43
2023-04-21T11:39:22.232Z,8.73
2023-04-21T11:41:51.136Z,7.13
2023-04-21T11:44:38.439Z,6.13
2023-04-21T11:47:24.575Z,6.67
2023-04-21T11:49:58.935Z,4.83
2023-04-21T11:52:29.525Z,6.17
2023-04-21T11:55:04.937Z,7.60
2023-04-21T11:57:32.953Z,6.97
2023-04-21T12:00:00.940Z,6.53
2023-04-21T12:02:29.612Z,7.80
2023-04-21T12:05:10.148Z,8.40
2023-04-21T12:07:38.707Z,8.40
2023-04-21T12:10:16.601Z,9.03
2023-04-21T12:12:44.397Z,8.30
2023-04-21T12:15:12.743Z,8.47
2023-04-21T12:17:46.990Z,10.00
2023-04-21T12:20:17.348Z,9.90
2023-04-21T12:22:44.148Z,9.97
2023-04-21T12:25:10.885Z,9.90
2023-04-21T12:27:37.628Z,10.87
2023-04-21T12:30:04.940Z,11.30
2023-04-21T12:32:31.779Z,10.87
2023-04-21T12:35:00.622Z,9.40
2023-04-21T12:37:27.360Z,9.83
2023-04-21T12:39:53.984Z,10.87
2023-04-21T12:42:20.593Z,10.80
2023-04-21T12:44:47.189Z,9.07
2023-04-21T12:47:13.875Z,10.23
2023-04-21T12:49:41.274Z,13.87
2023-04-21T12:52:09.014Z,10.30
2023-04-21T12:54:35.755Z,10.27
2023-04-21T12:57:02.625Z,9.10
2023-04-21T12:59:29.575Z,9.37
2023-04-21T13:01:56.347Z,8.77
2023-04-21T13:04:23.093Z,8.00
2023-04-21T13:06:50.119Z,9.00
2023-04-21T13:09:17.051Z,7.90
2023-04-21T13:11:43.747Z,7.70
2023-04-21T13:14:10.828Z,8.47
2023-04-21T13:16:37.537Z,8.70
2023-04-21T13:19:04.506Z,6.93
2023-04-21T13:21:32.572Z,7.90
2023-04-21T13:23:59.285Z,8.43
2023-04-21T13:26:27.013Z,7.10
2023-04-21T13:28:53.696Z,6.63
2023-04-21T13:31:20.580Z,7.50
2023-04-21T13:33:47.375Z,7.27
2023-04-21T13:36:14.095Z,7.47
2023-04-21T13:38:41.065Z,8.27
2023-04-21T13:41:08.134Z,7.60
2023-04-21T13:43:35.301Z,7.77
2023-04-21T13:46:02.210Z,7.53
2023-04-21T13:48:29.686Z,7.73
2023-04-21T13:50:56.536Z,7.10
2023-04-21T13:53:23.212Z,6.30
2023-04-21T13:55:50.182Z,7.30
2023-04-21T13:58:17.157Z,7.10
2023-04-21T14:00:44.211Z,8.00
2023-04-21T14:03:11.611Z,6.27
2023-04-21T14:05:39.013Z,7.70
2023-04-21T14:08:06.268Z,7.10
2023-04-21T14:10:33.024Z,6.50
2023-04-21T14:12:59.828Z,6.53
2023-04-21T14:15:26.896Z,5.97
2023-04-21T14:17:53.906Z,7.17
2023-04-21T14:20:20.790Z,6.17
2023-04-21T14:22:47.569Z,7.40
2023-04-21T14:25:14.274Z,6.13
2023-04-21T14:27:41.143Z,6.10
2023-04-21T14:30:08.411Z,6.73
2023-04-21T14:32:35.398Z,6.00
2023-04-21T14:35:03.719Z,5.23
2023-04-21T14:37:30.413Z,5.10
2023-04-21T14:39:57.007Z,5.60
2023-04-21T14:42:23.603Z,5.00
2023-04-21T14:44:50.251Z,4.90
2023-04-21T14:47:17.042Z,5.57
2023-04-21T14:49:43.768Z,6.30
2023-04-21T14:52:10.729Z,6.80
2023-04-21T14:54:37.334Z,5.40
2023-04-21T14:57:19.136Z,5.47
2023-04-21T14:59:49.341Z,5.17
2023-04-21T15:02:16.518Z,5.37
2023-04-21T15:04:43.469Z,5.10
2023-04-21T15:07:10.197Z,5.97
2023-04-21T15:09:37.275Z,4.93
2023-04-21T15:12:04.623Z,6.60
2023-04-21T15:14:31.399Z,5.23
2023-04-21T15:16:58.015Z,5.13
2023-04-21T15:19:25.681Z,3.83
2023-04-21T15:21:52.685Z,5.13
2023-04-21T15:24:19.424Z,5.20
2023-04-21T15:26:46.025Z,4.67
2023-04-21T15:29:12.746Z,5.10
2023-04-21T15:31:40.158Z,5.70
2023-04-21T15:34:06.891Z,5.30
2023-04-21T15:36:33.793Z,4.97
2023-04-21T15:39:00.491Z,5.33
2023-04-21T15:41:29.462Z,5.07
2023-04-21T15:43:56.286Z,5.17
2023-04-21T15:46:23.309Z,5.37
2023-04-21T15:48:50.201Z,5.30
2023-04-21T15:51:18.803Z,5.90
2023-04-21T15:53:48.142Z,5.63
2023-04-21T15:56:15.800Z,6.57
2023-04-21T15:58:42.807Z,8.00
2023-04-21T16:01:09.905Z,5.40
2023-04-21T16:03:37.300Z,5.50
2023-04-21T16:06:04.333Z,10.07
2023-04-21T16:08:33.008Z,10.00
2023-04-21T16:11:00.366Z,5.47
2023-04-21T16:13:27.309Z,5.40
2023-04-21T16:15:54.032Z,5.70
2023-04-21T16:18:20.910Z,5.40
2023-04-21T16:20:47.810Z,5.70
2023-04-21T16:23:15.191Z,5.30
2023-04-21T16:25:42.281Z,6.50
2023-04-21T16:28:09.734Z,5.67
2023-04-21T16:30:38.376Z,5.13
2023-04-21T16:33:05.135Z,4.87
2023-04-21T16:35:32.245Z,5.03
2023-04-21T16:37:59.130Z,4.80
2023-04-21T16:40:26.876Z,4.47
2023-04-21T16:42:53.585Z,4.80
2023-04-21T16:45:20.251Z,5.43
2023-04-21T16:47:46.990Z,5.10
2023-04-21T16:50:13.860Z,8.30
2023-04-21T16:52:40.860Z,5.27
2023-04-21T16:55:08.139Z,5.20
2023-04-21T16:57:35.150Z,5.60
2023-04-21T17:00:06.616Z,5.73
2023-04-21T17:02:35.453Z,5.93
2023-04-21T17:05:02.413Z,5.77
2023-04-21T17:07:29.293Z,5.20
2023-04-21T17:09:55.978Z,5.60
2023-04-21T17:12:22.796Z,5.37
2023-04-21T17:14:49.585Z,5.20
2023-04-21T17:17:16.688Z,6.13
2023-04-21T17:19:43.339Z,5.37
2023-04-21T17:22:10.109Z,4.90
2023-04-21T17:24:51.811Z,5.17
2023-04-21T17:27:19.691Z,5.50
2023-04-21T17:29:46.782Z,5.43
2023-04-21T17:32:14.226Z,5.60
2023-04-21T17:34:40.934Z,6.27
2023-04-21T17:37:07.573Z,6.03
2023-04-21T17:39:34.281Z,5.77
2023-04-21T17:42:02.401Z,5.80
2023-04-21T17:44:29.176Z,6.23
2023-04-21T17:46:55.955Z,7.60
2023-04-21T17:49:24.669Z,6.67
2023-04-21T17:51:51.508Z,6.10
2023-04-21T17:54:18.114Z,8.10
2023-04-21T17:56:48.163Z,8.20
2023-04-21T17:59:14.771Z,8.37
2023-04-21T18:01:41.437Z,7.00
2023-04-21T18:04:08.597Z,6.60
2023-04-21T18:06:35.898Z,6.77
2023-04-21T18:09:04.377Z,8.20
2023-04-21T18:11:31.137Z,7.03
2023-04-21T18:13:57.788Z,7.30
2023-04-21T18:16:25.468Z,7.60
2023-04-21T18:18:52.150Z,8.27
2023-04-21T18:21:18.880Z,7.17
2023-04-21T18:23:45.564Z,6.90
2023-04-21T18:26:12.198Z,7.70
2023-04-21T18:28:38.827Z,7.27
2023-04-21T18:31:05.605Z,7.30
2023-04-21T18:33:32.245Z,7.63
2023-04-21T18:36:00.544Z,7.10
2023-04-21T18:38:27.190Z,6.50
2023-04-21T18:40:53.803Z,6.20
2023-04-21T18:43:21.219Z,5.90
2023-04-21T18:45:47.799Z,6.13
2023-04-21T18:48:14.509Z,4.63
2023-04-21T18:50:41.397Z,3.30
2023-04-21T18:53:08.915Z,2.43
2023-04-21T18:55:36.440Z,2.77
2023-04-21T18:58:03.729Z,3.20
2023-04-21T19:00:31.840Z,2.77
2023-04-21T19:03:02.237Z,3.30
2023-04-21T19:05:31.645Z,2.67
2023-04-21T19:07:58.678Z,2.57
2023-04-21T19:10:25.997Z,3.40
2023-04-21T19:12:52.681Z,2.70
2023-04-21T19:15:20.966Z,2.70
2023-04-21T19:17:47.611Z,2.37
2023-04-21T19:20:14.358Z,3.47
2023-04-21T19:22:41.968Z,3.80
2023-04-21T19:25:09.079Z,3.60
2023-04-21T19:27:36.208Z,4.53
2023-04-21T19:30:03.400Z,3.40
2023-04-21T19:32:30.599Z,2.87
2023-04-21T19:34:57.464Z,2.77
2023-04-21T19:37:25.687Z,2.90
2023-04-21T19:39:52.300Z,3.20
2023-04-21T19:42:18.872Z,5.90
2023-04-21T19:44:45.561Z,3.20
2023-04-21T19:47:12.402Z,3.10
2023-04-21T19:49:40.147Z,2.87
2023-04-21T19:52:07.763Z,2.90
2023-04-21T19:54:34.459Z,3.10
2023-04-21T19:57:01.714Z,3.20
2023-04-21T19:59:29.535Z,2.70
2023-04-21T20:01:56.659Z,3.70
2023-04-21T20:04:23.866Z,3.23
2023-04-21T20:06:50.778Z,4.20
2023-04-21T20:09:17.404Z,5.87
2023-04-21T20:11:44.859Z,6.10
2023-04-21T20:14:11.544Z,4.90
2023-04-21T20:16:38.689Z,4.93
2023-04-21T20:19:05.550Z,3.90
2023-04-21T20:21:33.170Z,2.93
2023-04-21T20:23:59.984Z,3.70
2023-04-21T20:26:26.882Z,3.30
2023-04-21T20:28:54.942Z,4.20
2023-04-21T20:31:23.717Z,2.77
2023-04-21T20:33:51.145Z,2.60
2023-04-21T20:36:18.270Z,3.40
2023-04-21T20:38:49.636Z,3.30
2023-04-21T20:41:16.361Z,2.57
2023-04-21T20:43:43.745Z,3.23
2023-04-21T20:46:10.489Z,2.30
2023-04-21T20:48:37.308Z,2.53
2023-04-21T20:51:04.026Z,2.50
2023-04-21T20:53:30.900Z,2.27
2023-04-21T20:55:57.509Z,2.60
2023-04-21T20:58:24.823Z,3.00
2023-04-21T21:00:51.553Z,3.87
2023-04-21T21:03:20.200Z,2.70
2023-04-21T21:05:47.616Z,2.20
2023-04-21T21:08:15.074Z,2.00
2023-04-21T21:10:41.930Z,2.80
2023-04-21T21:13:08.579Z,2.57
2023-04-21T21:15:35.663Z,2.57
2023-04-21T21:18:02.595Z,2.10
2023-04-21T21:20:29.324Z,1.90
2023-04-21T21:22:56.085Z,2.67
2023-04-21T21:25:22.732Z,2.83
2023-04-21T21:27:49.611Z,2.60
2023-04-21T21:30:16.289Z,2.43
2023-04-21T21:32:43.013Z,2.03
2023-04-21T21:35:10.341Z,2.03
2023-04-21T21:37:37.647Z,2.43
2023-04-21T21:40:06.081Z,2.57
2023-04-21T21:42:32.741Z,2.27
2023-04-21T21:44:59.486Z,2.13
2023-04-21T21:47:26.130Z,2.60
2023-04-21T21:49:54.856Z,2.37
2023-04-21T21:52:21.984Z,2.47
2023-04-21T21:54:48.581Z,2.20
2023-04-21T21:57:15.239Z,2.40
2023-04-21T21:59:42.151Z,2.63
2023-04-21T22:02:08.874Z,2.80
2023-04-21T22:04:35.826Z,2.13
2023-04-21T22:07:03.641Z,2.83
2023-04-21T22:09:30.839Z,3.30
2023-04-21T22:11:57.466Z,3.00
2023-04-21T22:14:24.368Z,3.67
2023-04-21T22:16:53.030Z,3.30
2023-04-21T22:19:20.431Z,3.80
2023-04-21T22:21:47.218Z,3.73
2023-04-21T22:24:14.361Z,3.90
2023-04-21T22:26:41.105Z,2.60
2023-04-21T22:29:07.724Z,3.93
2023-04-21T22:31:34.505Z,4.40
2023-04-21T22:34:01.464Z,5.50
2023-04-21T22:36:28.136Z,11.20
2023-04-21T22:38:54.734Z,8.77
2023-04-21T22:41:21.520Z,10.10
2023-04-21T22:43:48.253Z,7.47
2023-04-21T22:46:15.257Z,7.33
2023-04-21T22:48:42.133Z,5.40
2023-04-21T22:51:08.781Z,5.00
2023-04-21T22:53:35.514Z,5.70
2023-04-21T22:56:02.250Z,4.73
2023-04-21T22:58:28.979Z,4.67
2023-04-21T23:00:55.686Z,4.43
2023-04-21T23:03:23.176Z,4.40
2023-04-21T23:05:50.025Z,4.73
2023-04-21T23:08:16.616Z,4.17
2023-04-21T23:10:43.314Z,4.53
2023-04-21T23:13:10.025Z,4.40
2023-04-21T23:15:36.717Z,4.90
2023-04-21T23:18:03.655Z,4.30
2023-04-21T23:20:31.038Z,5.80
2023-04-21T23:22:57.952Z,5.90
2023-04-21T23:25:24.547Z,6.33
2023-04-21T23:27:51.240Z,5.50
2023-04-21T23:30:17.994Z,8.87
2023-04-21T23:32:45.262Z,9.23
2023-04-21T23:35:12.086Z,8.53
2023-04-21T23:37:38.753Z,7.80
2023-04-21T23:40:09.037Z,7.57
2023-04-21T23:42:36.196Z,7.57
2023-04-21T23:45:03.661Z,6.73
2023-04-21T23:47:30.729Z,5.77
2023-04-21T23:49:57.534Z,5.67
2023-04-21T23:52:24.173Z,5.50
2023-04-21T23:54:50.766Z,5.50
2023-04-21T23:57:17.513Z,4.70
2023-04-21T23:59:44.385Z,4.70
